createdAt,value
2019-06-08T00:00:57.404Z,992.67
2019-06-08T00:01:57.403Z,992.7
2019-06-08T00:02:57.420Z,992.73
2019-06-08T00:03:57.397Z,992.8
2019-06-08T00:04:57.411Z,992.81
2019-06-08T00:05:57.419Z,992.81
2019-06-08T00:06:57.399Z,992.81
2019-06-08T00:07:57.415Z,992.84
2019-06-08T00:08:57.396Z,992.81
2019-06-08T00:09:57.395Z,992.85
2019-06-08T00:10:57.393Z,992.77
2019-06-08T00:11:57.387Z,992.76
2019-06-08T00:12:57.390Z,992.81
2019-06-08T00:13:57.389Z,992.87
2019-06-08T00:14:57.404Z,992.9
2019-06-08T00:15:57.385Z,992.94
2019-06-08T00:16:57.382Z,992.96
2019-06-08T00:17:59.321Z,992.83
2019-06-08T00:18:57.380Z,992.88
2019-06-08T00:19:57.380Z,992.94
2019-06-08T00:20:57.378Z,993.02
2019-06-08T00:21:57.374Z,993.07
2019-06-08T00:22:57.379Z,993.09
2019-06-08T00:23:57.372Z,993.1
2019-06-08T00:24:57.372Z,993.12
2019-06-08T00:25:57.372Z,993.12
2019-06-08T00:26:57.368Z,993.04
2019-06-08T00:27:57.385Z,992.99
2019-06-08T00:28:57.366Z,993.02
2019-06-08T00:29:57.364Z,993.05
2019-06-08T00:30:57.363Z,993.06
2019-06-08T00:31:57.365Z,993.11
2019-06-08T00:32:57.367Z,993.18
2019-06-08T00:33:57.365Z,993.17
2019-06-08T00:34:57.355Z,993.11
2019-06-08T00:35:57.361Z,993.07
2019-06-08T00:36:57.364Z,993.05
2019-06-08T00:37:57.381Z,992.99
2019-06-08T00:38:57.364Z,993.06
2019-06-08T00:39:57.364Z,993.08
2019-06-08T00:40:57.349Z,993.15
2019-06-08T00:41:57.345Z,993.24
2019-06-08T00:42:57.351Z,993.28
2019-06-08T00:43:57.346Z,993.34
2019-06-08T00:44:57.342Z,993.34
2019-06-08T00:45:57.340Z,993.36
2019-06-08T00:46:57.339Z,993.43
2019-06-08T00:47:57.353Z,993.42
2019-06-08T00:48:57.338Z,993.42
2019-06-08T00:49:57.332Z,993.39
2019-06-08T00:50:57.331Z,993.26
2019-06-08T00:51:57.333Z,993.18
2019-06-08T00:52:57.339Z,993.07
2019-06-08T00:53:57.334Z,993.03
2019-06-08T00:54:57.335Z,992.96
2019-06-08T00:55:57.335Z,992.95
2019-06-08T00:56:57.329Z,992.95
2019-06-08T00:57:57.336Z,992.96
2019-06-08T00:58:57.319Z,993.03
2019-06-08T00:59:57.317Z,993.04
2019-06-08T01:00:57.318Z,993.06
2019-06-08T01:01:57.315Z,993.13
2019-06-08T01:02:57.321Z,993.2
2019-06-08T01:03:57.311Z,993.26
2019-06-08T01:04:57.332Z,993.37
2019-06-08T01:05:57.315Z,993.43
2019-06-08T01:06:57.322Z,993.44
2019-06-08T01:07:57.317Z,993.41
2019-06-08T01:08:57.306Z,993.45
2019-06-08T01:09:57.301Z,993.43
2019-06-08T01:10:57.318Z,993.45
2019-06-08T01:11:57.303Z,993.44
2019-06-08T01:12:57.300Z,993.45
2019-06-08T01:13:57.295Z,993.38
2019-06-08T01:14:57.296Z,993.38
2019-06-08T01:15:57.292Z,993.42
2019-06-08T01:16:57.290Z,993.55
2019-06-08T01:18:02.472Z,993.66
2019-06-08T01:18:57.289Z,993.69
2019-06-08T01:19:57.286Z,993.73
2019-06-08T01:20:57.285Z,993.76
2019-06-08T01:21:57.287Z,993.74
2019-06-08T01:22:57.293Z,993.73
2019-06-08T01:23:57.533Z,993.76
2019-06-08T01:24:57.288Z,993.78
2019-06-08T01:25:57.279Z,993.84
2019-06-08T01:26:57.274Z,993.85
2019-06-08T01:27:57.281Z,993.92
2019-06-08T01:28:57.272Z,993.98
2019-06-08T01:29:57.273Z,994.03
2019-06-08T01:30:57.276Z,994.03
2019-06-08T01:31:57.267Z,994
2019-06-08T01:32:57.272Z,993.99
2019-06-08T01:33:57.263Z,994.01
2019-06-08T01:34:57.285Z,994.1
2019-06-08T01:35:57.258Z,994.09
2019-06-08T01:36:57.268Z,994.16
2019-06-08T01:37:57.277Z,994.11
2019-06-08T01:38:57.259Z,994.17
2019-06-08T01:39:57.253Z,994.15
2019-06-08T01:40:57.253Z,994.21
2019-06-08T01:41:57.254Z,994.25
2019-06-08T01:42:57.252Z,994.23
2019-06-08T01:43:57.246Z,994.16
2019-06-08T01:44:57.247Z,994.11
2019-06-08T01:45:57.241Z,994.04
2019-06-08T01:46:57.251Z,994.09
2019-06-08T01:47:57.260Z,994.16
2019-06-08T01:48:57.240Z,994.15
2019-06-08T01:49:57.238Z,994.09
2019-06-08T01:50:57.233Z,994.11
2019-06-08T01:51:57.233Z,994.15
2019-06-08T01:52:57.247Z,994.16
2019-06-08T01:53:58.031Z,994.05
2019-06-08T01:54:57.225Z,993.98
2019-06-08T01:55:57.230Z,993.93
2019-06-08T01:56:57.226Z,993.86
2019-06-08T01:57:57.225Z,993.82
2019-06-08T01:58:57.221Z,993.84
2019-06-08T01:59:57.218Z,993.89
2019-06-08T02:00:57.217Z,993.91
2019-06-08T02:01:57.221Z,993.88
2019-06-08T02:02:57.232Z,993.97
2019-06-08T02:03:57.259Z,994.03
2019-06-08T02:04:57.220Z,994.12
2019-06-08T02:05:57.209Z,994.14
2019-06-08T02:06:57.215Z,994.18
2019-06-08T02:07:57.222Z,994.22
2019-06-08T02:08:57.211Z,994.24
2019-06-08T02:09:57.204Z,994.25
2019-06-08T02:10:57.201Z,994.21
2019-06-08T02:11:57.197Z,994.22
2019-06-08T02:12:57.206Z,994.27
2019-06-08T02:13:57.193Z,994.35
2019-06-08T02:14:57.195Z,994.4
2019-06-08T02:15:57.193Z,994.42
2019-06-08T02:16:57.192Z,994.36
2019-06-08T02:17:57.198Z,994.39
2019-06-08T02:18:57.188Z,994.32
2019-06-08T02:19:57.187Z,994.29
2019-06-08T02:20:57.185Z,994.29
2019-06-08T02:21:57.187Z,994.21
2019-06-08T02:22:57.198Z,994.2
2019-06-08T02:23:57.180Z,994.1
2019-06-08T02:24:57.177Z,994.1
2019-06-08T02:25:57.175Z,994.09
2019-06-08T02:26:57.172Z,994.06
2019-06-08T02:27:57.181Z,994.07
2019-06-08T02:28:57.173Z,994
2019-06-08T02:29:57.170Z,993.94
2019-06-08T02:30:57.167Z,994.02
2019-06-08T02:31:57.168Z,994.11
2019-06-08T02:32:57.170Z,994.17
2019-06-08T02:33:57.163Z,994.21
2019-06-08T02:34:57.175Z,994.19
2019-06-08T02:35:57.162Z,994.21
2019-06-08T02:36:57.159Z,994.18
2019-06-08T02:37:57.169Z,994.19
2019-06-08T02:38:57.159Z,994.19
2019-06-08T02:39:57.158Z,994.21
2019-06-08T02:40:57.153Z,994.25
2019-06-08T02:41:57.151Z,994.21
2019-06-08T02:42:57.171Z,994.24
2019-06-08T02:43:57.148Z,994.28
2019-06-08T02:44:57.146Z,994.26
2019-06-08T02:45:57.140Z,994.32
2019-06-08T02:46:57.147Z,994.29
2019-06-08T02:47:57.166Z,994.26
2019-06-08T02:49:03.853Z,994.3
2019-06-08T02:49:57.136Z,994.33
2019-06-08T02:50:57.140Z,994.35
2019-06-08T02:51:57.133Z,994.33
2019-06-08T02:52:57.140Z,994.28
2019-06-08T02:53:57.136Z,994.31
2019-06-08T02:54:57.382Z,994.3
2019-06-08T02:55:57.135Z,994.35
2019-06-08T02:56:57.126Z,994.47
2019-06-08T02:57:57.132Z,994.48
2019-06-08T02:58:57.122Z,994.54
2019-06-08T02:59:57.938Z,994.52
2019-06-08T03:00:57.121Z,994.53
2019-06-08T03:01:57.116Z,994.48
2019-06-08T03:02:57.123Z,994.46
2019-06-08T03:03:57.115Z,994.48
2019-06-08T03:04:57.111Z,994.46
2019-06-08T03:05:57.118Z,994.49
2019-06-08T03:06:57.111Z,994.42
2019-06-08T03:07:57.107Z,994.34
2019-06-08T03:08:57.112Z,994.35
2019-06-08T03:09:57.120Z,994.42
2019-06-08T03:10:57.100Z,994.47
2019-06-08T03:11:57.107Z,994.53
2019-06-08T03:12:57.104Z,994.51
2019-06-08T03:13:57.096Z,994.54
2019-06-08T03:14:57.098Z,994.53
2019-06-08T03:15:57.096Z,994.5
2019-06-08T03:16:57.096Z,994.56
2019-06-08T03:17:57.099Z,994.59
2019-06-08T03:18:57.095Z,994.63
2019-06-08T03:19:57.098Z,994.7
2019-06-08T03:20:57.087Z,994.76
2019-06-08T03:21:57.090Z,994.78
2019-06-08T03:22:57.089Z,994.81
2019-06-08T03:23:57.083Z,994.76
2019-06-08T03:24:57.079Z,994.79
2019-06-08T03:25:57.081Z,994.91
2019-06-08T03:26:57.077Z,994.96
2019-06-08T03:27:57.078Z,995.03
2019-06-08T03:28:57.076Z,995.07
2019-06-08T03:29:57.075Z,995.14
2019-06-08T03:30:57.077Z,995.05
2019-06-08T03:31:57.759Z,995.08
2019-06-08T03:32:57.436Z,995.08
2019-06-08T03:33:57.065Z,995
2019-06-08T03:34:57.433Z,995
2019-06-08T03:35:58.524Z,995.08
2019-06-08T03:36:57.788Z,995.11
2019-06-08T03:37:57.058Z,995.15
2019-06-08T03:38:57.057Z,995.16
2019-06-08T03:39:57.055Z,995.14
2019-06-08T03:40:57.054Z,995.11
2019-06-08T03:41:57.055Z,995.14
2019-06-08T03:42:57.949Z,995.15
2019-06-08T03:43:57.049Z,995.12
2019-06-08T03:44:57.054Z,995.17
2019-06-08T03:45:57.051Z,995.19
2019-06-08T03:46:57.053Z,995.23
2019-06-08T03:47:57.041Z,995.27
2019-06-08T03:48:57.042Z,995.32
2019-06-08T03:49:57.835Z,995.37
2019-06-08T03:50:57.043Z,995.33
2019-06-08T03:51:57.035Z,995.3
2019-06-08T03:52:57.039Z,995.35
2019-06-08T03:53:57.031Z,995.35
2019-06-08T03:54:57.031Z,995.39
2019-06-08T03:55:57.027Z,995.36
2019-06-08T03:56:57.027Z,995.34
2019-06-08T03:57:57.029Z,995.36
2019-06-08T03:58:57.023Z,995.43
2019-06-08T03:59:57.021Z,995.45
2019-06-08T04:00:57.021Z,995.4
2019-06-08T04:01:57.032Z,995.42
2019-06-08T04:02:57.017Z,995.42
2019-06-08T04:03:59.843Z,995.38
2019-06-08T04:04:57.012Z,995.36
2019-06-08T04:05:57.018Z,995.32
2019-06-08T04:06:57.015Z,995.34
2019-06-08T04:07:57.012Z,995.35
2019-06-08T04:08:57.018Z,995.33
2019-06-08T04:09:57.008Z,995.37
2019-06-08T04:10:57.004Z,995.3
2019-06-08T04:11:57.007Z,995.35
2019-06-08T04:12:57.003Z,995.45
2019-06-08T04:13:57.003Z,995.51
2019-06-08T04:14:57.000Z,995.55
2019-06-08T04:15:57.002Z,995.56
2019-06-08T04:16:56.998Z,995.56
2019-06-08T04:17:56.996Z,995.5
2019-06-08T04:18:56.997Z,995.53
2019-06-08T04:20:10.012Z,995.57
2019-06-08T04:20:56.991Z,995.6
2019-06-08T04:21:56.990Z,995.59
2019-06-08T04:22:56.989Z,995.63
2019-06-08T04:23:56.986Z,995.64
2019-06-08T04:24:56.987Z,995.69
2019-06-08T04:25:58.584Z,995.66
2019-06-08T04:26:56.988Z,995.66
2019-06-08T04:27:56.987Z,995.64
2019-06-08T04:28:56.981Z,995.64
2019-06-08T04:29:56.984Z,995.59
2019-06-08T04:30:56.977Z,995.53
2019-06-08T04:31:56.976Z,995.52
2019-06-08T04:32:56.977Z,995.55
2019-06-08T04:33:56.972Z,995.59
2019-06-08T04:34:56.972Z,995.61
2019-06-08T04:35:56.971Z,995.59
2019-06-08T04:36:56.976Z,995.63
2019-06-08T04:37:56.966Z,995.63
2019-06-08T04:38:56.965Z,995.65
2019-06-08T04:39:56.961Z,995.71
2019-06-08T04:40:56.970Z,995.75
2019-06-08T04:41:56.959Z,995.78
2019-06-08T04:42:56.956Z,995.75
2019-06-08T04:43:56.958Z,995.73
2019-06-08T04:44:56.960Z,995.74
2019-06-08T04:45:56.954Z,995.76
2019-06-08T04:46:56.952Z,995.71
2019-06-08T04:47:56.952Z,995.75
2019-06-08T04:48:56.949Z,995.75
2019-06-08T04:49:56.952Z,995.78
2019-06-08T04:50:56.945Z,995.83
2019-06-08T04:51:56.944Z,995.82
2019-06-08T04:52:56.946Z,995.86
2019-06-08T04:53:56.943Z,995.9
2019-06-08T04:54:56.941Z,995.89
2019-06-08T04:55:56.938Z,995.96
2019-06-08T04:56:56.938Z,996.03
2019-06-08T04:57:56.936Z,996.02
2019-06-08T04:58:56.956Z,996.04
2019-06-08T04:59:56.957Z,996
2019-06-08T05:00:56.944Z,996.07
2019-06-08T05:01:56.932Z,996.09
2019-06-08T05:02:56.947Z,996.02
2019-06-08T05:03:56.928Z,996.08
2019-06-08T05:04:56.929Z,996.09
2019-06-08T05:05:56.930Z,996.12
2019-06-08T05:06:56.926Z,996.09
2019-06-08T05:07:56.921Z,996.13
2019-06-08T05:08:56.923Z,996.2
2019-06-08T05:09:56.922Z,996.24
2019-06-08T05:10:56.937Z,996.24
2019-06-08T05:11:56.925Z,996.28
2019-06-08T05:12:56.938Z,996.33
2019-06-08T05:13:56.990Z,996.32
2019-06-08T05:14:56.915Z,996.35
2019-06-08T05:15:56.915Z,996.36
2019-06-08T05:16:56.917Z,996.42
2019-06-08T05:17:56.912Z,996.42
2019-06-08T05:18:56.912Z,996.43
2019-06-08T05:19:56.915Z,996.42
2019-06-08T05:20:56.911Z,996.42
2019-06-08T05:21:56.914Z,996.45
2019-06-08T05:22:56.911Z,996.47
2019-06-08T05:23:58.789Z,996.48
2019-06-08T05:24:56.909Z,996.52
2019-06-08T05:25:56.907Z,996.58
2019-06-08T05:26:56.905Z,996.64
2019-06-08T05:27:56.909Z,996.61
2019-06-08T05:28:56.904Z,996.6
2019-06-08T05:29:56.903Z,996.57
2019-06-08T05:30:56.909Z,996.62
2019-06-08T05:31:56.904Z,996.6
2019-06-08T05:32:56.921Z,996.62
2019-06-08T05:33:56.899Z,996.63
2019-06-08T05:34:56.900Z,996.64
2019-06-08T05:35:56.898Z,996.68
2019-06-08T05:36:56.896Z,996.68
2019-06-08T05:37:56.901Z,996.69
2019-06-08T05:38:56.896Z,996.72
2019-06-08T05:39:56.897Z,996.68
2019-06-08T05:40:56.903Z,996.73
2019-06-08T05:41:56.895Z,996.72
2019-06-08T05:42:56.895Z,996.69
2019-06-08T05:43:56.894Z,996.65
2019-06-08T05:44:56.894Z,996.65
2019-06-08T05:45:56.892Z,996.68
2019-06-08T05:46:56.892Z,996.7
2019-06-08T05:47:56.889Z,996.69
2019-06-08T05:48:56.897Z,996.77
2019-06-08T05:49:56.892Z,996.76
2019-06-08T05:51:03.795Z,996.76
2019-06-08T05:51:56.908Z,996.77
2019-06-08T05:52:56.886Z,996.71
2019-06-08T05:53:56.887Z,996.71
2019-06-08T05:54:56.883Z,996.71
2019-06-08T05:55:56.882Z,996.73
2019-06-08T05:56:56.883Z,996.74
2019-06-08T05:57:56.884Z,996.75
2019-06-08T05:58:56.880Z,996.74
2019-06-08T05:59:56.883Z,996.75
2019-06-08T06:00:56.879Z,996.73
2019-06-08T06:01:56.879Z,996.76
2019-06-08T06:02:56.886Z,996.79
2019-06-08T06:03:56.878Z,996.83
2019-06-08T06:04:56.904Z,996.83
2019-06-08T06:05:56.878Z,996.78
2019-06-08T06:06:56.883Z,996.9
2019-06-08T06:07:56.875Z,996.88
2019-06-08T06:08:56.876Z,996.89
2019-06-08T06:09:56.873Z,996.87
2019-06-08T06:10:56.873Z,996.88
2019-06-08T06:11:56.870Z,996.92
2019-06-08T06:12:56.878Z,996.97
2019-06-08T06:13:56.871Z,996.94
2019-06-08T06:14:56.897Z,996.99
2019-06-08T06:15:56.871Z,997.05
2019-06-08T06:16:56.870Z,997.08
2019-06-08T06:17:56.866Z,996.97
2019-06-08T06:18:56.869Z,996.98
2019-06-08T06:19:56.876Z,997.02
2019-06-08T06:21:09.672Z,996.96
2019-06-08T06:21:57.670Z,996.94
2019-06-08T06:22:58.568Z,996.97
2019-06-08T06:23:56.870Z,996.94
2019-06-08T06:24:56.869Z,996.9
2019-06-08T06:25:56.869Z,996.93
2019-06-08T06:26:56.871Z,996.9
2019-06-08T06:27:56.868Z,996.95
2019-06-08T06:28:56.870Z,997.05
2019-06-08T06:29:56.883Z,997.03
2019-06-08T06:30:56.873Z,997.07
2019-06-08T06:31:56.869Z,997.04
2019-06-08T06:32:56.875Z,996.99
2019-06-08T06:33:56.874Z,997.04
2019-06-08T06:34:56.873Z,997.05
2019-06-08T06:35:56.877Z,996.92
2019-06-08T06:36:57.525Z,997.08
2019-06-08T06:37:56.880Z,997.03
2019-06-08T06:38:56.882Z,997.04
2019-06-08T06:39:56.886Z,997.05
2019-06-08T06:40:56.890Z,997.03
2019-06-08T06:41:56.892Z,997.04
2019-06-08T06:42:56.901Z,997.05
2019-06-08T06:43:56.900Z,997.05
2019-06-08T06:44:56.905Z,997.09
2019-06-08T06:45:56.904Z,997.13
2019-06-08T06:46:56.924Z,997.1
2019-06-08T06:47:56.911Z,997.18
2019-06-08T06:48:56.912Z,997.19
2019-06-08T06:49:56.920Z,997.03
2019-06-08T06:50:56.922Z,997.32
2019-06-08T06:51:56.929Z,997.28
2019-06-08T06:52:56.930Z,997.45
2019-06-08T06:53:56.934Z,997.32
2019-06-08T06:54:56.941Z,997.24
2019-06-08T06:55:56.943Z,997.25
2019-06-08T06:56:56.958Z,997.23
2019-06-08T06:57:56.966Z,997.24
2019-06-08T06:58:56.954Z,997.19
2019-06-08T06:59:56.961Z,997.11
2019-06-08T07:00:56.970Z,997.28
2019-06-08T07:01:57.691Z,997.29
2019-06-08T07:02:56.978Z,997.33
2019-06-08T07:03:56.980Z,997.27
2019-06-08T07:04:56.983Z,997.22
2019-06-08T07:05:56.993Z,997.19
2019-06-08T07:06:56.995Z,997.19
2019-06-08T07:07:56.997Z,997.09
2019-06-08T07:08:57.003Z,997.05
2019-06-08T07:09:57.007Z,997.19
2019-06-08T07:10:57.012Z,997.21
2019-06-08T07:11:57.032Z,997.4
2019-06-08T07:12:57.019Z,997.24
2019-06-08T07:13:57.024Z,997.28
2019-06-08T07:14:57.036Z,997.23
2019-06-08T07:15:58.186Z,997.5
2019-06-08T07:16:58.231Z,997.12
2019-06-08T07:17:58.395Z,997.28
2019-06-08T07:18:58.619Z,997.38
2019-06-08T07:19:57.047Z,997.35
2019-06-08T07:20:57.370Z,997.37
2019-06-08T07:21:57.053Z,997.39
2019-06-08T07:22:57.059Z,997.34
2019-06-08T07:23:57.077Z,997.36
2019-06-08T07:24:57.069Z,997.38
2019-06-08T07:25:57.070Z,997.39
2019-06-08T07:26:57.083Z,997.35
2019-06-08T07:27:59.283Z,997.37
2019-06-08T07:28:57.083Z,997.33
2019-06-08T07:29:57.090Z,997.4
2019-06-08T07:30:57.100Z,997.4
2019-06-08T07:31:57.097Z,997.38
2019-06-08T07:32:57.105Z,997.35
2019-06-08T07:33:57.108Z,997.34
2019-06-08T07:34:57.112Z,997.48
2019-06-08T07:35:57.129Z,997.3
2019-06-08T07:36:57.122Z,997.39
2019-06-08T07:37:57.131Z,997.5
2019-06-08T07:38:57.131Z,997.36
2019-06-08T07:39:57.148Z,997.55
2019-06-08T07:40:59.585Z,997.39
2019-06-08T07:41:57.152Z,997.45
2019-06-08T07:42:57.162Z,997.41
2019-06-08T07:43:58.441Z,997.45
2019-06-08T07:44:57.166Z,997.41
2019-06-08T07:45:58.402Z,997.42
2019-06-08T07:46:57.181Z,997.4
2019-06-08T07:47:57.186Z,997.57
2019-06-08T07:48:58.516Z,997.51
2019-06-08T07:49:57.197Z,997.39
2019-06-08T07:50:58.320Z,997.38
2019-06-08T07:52:06.636Z,997.39
2019-06-08T07:52:57.212Z,997.3
2019-06-08T07:53:57.220Z,997.3
2019-06-08T07:54:58.500Z,997.37
2019-06-08T07:55:57.231Z,997.36
2019-06-08T07:56:57.244Z,997.4
2019-06-08T07:57:58.058Z,997.31
2019-06-08T07:58:57.320Z,997.35
2019-06-08T07:59:57.263Z,997.34
2019-06-08T08:01:03.934Z,997.32
2019-06-08T08:01:58.320Z,997.32
2019-06-08T08:02:58.281Z,997.44
2019-06-08T08:03:58.404Z,997.41
2019-06-08T08:04:58.780Z,997.44
2019-06-08T08:05:58.501Z,997.38
2019-06-08T08:06:58.383Z,997.37
2019-06-08T08:07:57.311Z,997.32
2019-06-08T08:08:58.781Z,997.38
2019-06-08T08:09:58.710Z,997.44
2019-06-08T08:10:58.640Z,997.27
2019-06-08T08:11:57.332Z,997.38
2019-06-08T08:12:57.347Z,997.31
2019-06-08T08:13:57.539Z,997.34
2019-06-08T08:14:57.986Z,997.34
2019-06-08T08:15:58.992Z,997.35
2019-06-08T08:16:57.364Z,997.34
2019-06-08T08:17:57.720Z,997.24
2019-06-08T08:18:57.631Z,997.11
2019-06-08T08:19:57.465Z,997.27
2019-06-08T08:20:58.992Z,997.27
2019-06-08T08:22:00.897Z,997.29
2019-06-08T08:23:03.344Z,997.39
2019-06-08T08:23:59.361Z,997.3
2019-06-08T08:25:02.410Z,997.35
2019-06-08T08:26:00.083Z,997.33
2019-06-08T08:27:01.919Z,997.33
2019-06-08T08:27:58.112Z,997.34
2019-06-08T08:29:01.253Z,997.37
2019-06-08T08:29:59.742Z,997.36
2019-06-08T08:30:59.625Z,997.31
2019-06-08T08:31:59.867Z,997.19
2019-06-08T08:33:01.415Z,997.33
2019-06-08T08:33:59.586Z,997.32
2019-06-08T08:34:59.156Z,997.36
2019-06-08T08:35:59.748Z,997.37
2019-06-08T08:36:58.861Z,997.35
2019-06-08T08:38:02.327Z,997.42
2019-06-08T08:39:00.226Z,997.41
2019-06-08T08:39:59.557Z,997.4
2019-06-08T08:41:04.577Z,997.44
2019-06-08T08:42:03.307Z,997.47
2019-06-08T08:42:58.614Z,997.41
2019-06-08T08:43:58.911Z,997.41
2019-06-08T08:44:59.276Z,997.51
2019-06-08T08:45:59.043Z,997.48
2019-06-08T08:47:00.535Z,997.56
2019-06-08T08:48:14.292Z,997.58
2019-06-08T08:49:05.041Z,997.56
2019-06-08T08:49:59.056Z,997.55
2019-06-08T08:51:00.738Z,997.55
2019-06-08T08:51:59.932Z,997.59
2019-06-08T08:53:00.326Z,997.54
2019-06-08T08:54:03.153Z,997.5
2019-06-08T08:55:00.171Z,997.5
2019-06-08T08:55:59.315Z,997.56
2019-06-08T08:57:01.743Z,997.42
2019-06-08T08:57:59.359Z,997.51
2019-06-08T08:59:00.682Z,997.52
2019-06-08T09:00:01.570Z,997.58
2019-06-08T09:01:00.191Z,997.5
2019-06-08T09:02:00.944Z,997.57
2019-06-08T09:03:12.943Z,997.5
2019-06-08T09:04:01.463Z,997.43
2019-06-08T09:05:00.260Z,997.53
2019-06-08T09:06:00.369Z,997.49
2019-06-08T09:06:58.743Z,997.46
2019-06-08T09:07:58.765Z,997.45
2019-06-08T09:09:00.495Z,997.46
2019-06-08T09:10:00.200Z,997.5
2019-06-08T09:10:59.516Z,997.54
2019-06-08T09:12:00.792Z,997.49
2019-06-08T09:13:00.301Z,997.53
2019-06-08T09:13:59.145Z,997.5
2019-06-08T09:15:00.127Z,997.49
2019-06-08T09:16:00.682Z,997.51
2019-06-08T09:16:59.688Z,997.49
2019-06-08T09:17:59.785Z,997.54
2019-06-08T09:19:00.768Z,997.53
2019-06-08T09:19:58.834Z,997.66
2019-06-08T09:21:00.228Z,997.53
2019-06-08T09:21:59.981Z,997.71
2019-06-08T09:23:02.915Z,997.72
2019-06-08T09:24:00.412Z,997.77
2019-06-08T09:25:00.572Z,997.68
2019-06-08T09:26:05.713Z,997.6
2019-06-08T09:27:00.684Z,997.67
2019-06-08T09:28:01.086Z,997.64
2019-06-08T09:28:58.381Z,997.66
2019-06-08T09:30:00.596Z,997.72
2019-06-08T09:31:00.007Z,997.66
2019-06-08T09:31:58.876Z,997.59
2019-06-08T09:33:00.563Z,997.65
2019-06-08T09:34:07.281Z,997.65
2019-06-08T09:35:01.241Z,997.66
2019-06-08T09:36:00.790Z,997.66
2019-06-08T09:37:00.063Z,997.69
2019-06-08T09:38:00.875Z,997.73
2019-06-08T09:39:00.653Z,997.77
2019-06-08T09:39:58.869Z,997.81
2019-06-08T09:41:01.181Z,997.75
2019-06-08T09:42:00.236Z,997.72
2019-06-08T09:43:03.921Z,997.72
2019-06-08T09:44:00.440Z,997.56
2019-06-08T09:45:00.319Z,997.62
2019-06-08T09:46:00.150Z,997.7
2019-06-08T09:47:00.777Z,997.75
2019-06-08T09:48:00.342Z,997.72
2019-06-08T09:48:59.389Z,997.69
2019-06-08T09:50:00.217Z,997.72
2019-06-08T09:51:00.318Z,997.8
2019-06-08T09:51:59.996Z,997.86
2019-06-08T09:53:14.605Z,997.73
2019-06-08T09:54:01.096Z,997.77
2019-06-08T09:55:00.985Z,997.8
2019-06-08T09:56:01.297Z,997.78
2019-06-08T09:57:00.682Z,997.8
2019-06-08T09:58:01.769Z,997.83
2019-06-08T09:59:01.221Z,997.8
2019-06-08T10:00:00.988Z,997.73
2019-06-08T10:01:00.979Z,997.77
2019-06-08T10:02:03.307Z,997.77
2019-06-08T10:03:01.057Z,997.69
2019-06-08T10:04:00.517Z,997.73
2019-06-08T10:05:00.381Z,997.77
2019-06-08T10:05:59.321Z,997.7
2019-06-08T10:07:00.136Z,997.77
2019-06-08T10:08:00.431Z,997.7
2019-06-08T10:08:58.492Z,997.76
2019-06-08T10:10:00.023Z,997.74
2019-06-08T10:11:00.878Z,997.77
2019-06-08T10:11:59.548Z,997.67
2019-06-08T10:13:01.044Z,997.84
2019-06-08T10:14:01.574Z,997.79
2019-06-08T10:14:58.760Z,997.77
2019-06-08T10:16:01.686Z,997.77
2019-06-08T10:17:00.565Z,997.83
2019-06-08T10:17:58.904Z,997.75
2019-06-08T10:19:02.230Z,997.7
2019-06-08T10:20:00.285Z,997.56
2019-06-08T10:21:00.444Z,997.64
2019-06-08T10:21:58.835Z,997.7
2019-06-08T10:23:00.965Z,997.7
2019-06-08T10:24:00.678Z,997.75
2019-06-08T10:25:00.585Z,997.67
2019-06-08T10:26:00.569Z,997.72
2019-06-08T10:26:59.267Z,997.76
2019-06-08T10:28:00.367Z,997.77
2019-06-08T10:29:00.035Z,997.73
2019-06-08T10:30:01.303Z,997.72
2019-06-08T10:30:59.951Z,997.63
2019-06-08T10:31:57.885Z,997.7
2019-06-08T10:33:00.375Z,997.6
2019-06-08T10:34:00.480Z,997.66
2019-06-08T10:34:59.702Z,997.61
2019-06-08T10:36:00.467Z,997.62
2019-06-08T10:36:58.805Z,997.56
2019-06-08T10:38:02.483Z,997.58
2019-06-08T10:39:01.549Z,997.58
2019-06-08T10:40:00.517Z,997.58
2019-06-08T10:41:00.029Z,997.61
2019-06-08T10:42:00.837Z,997.62
2019-06-08T10:42:59.501Z,997.56
2019-06-08T10:43:59.114Z,997.48
2019-06-08T10:45:02.646Z,997.53
2019-06-08T10:46:02.787Z,997.51
2019-06-08T10:47:00.313Z,997.49
2019-06-08T10:47:59.618Z,997.61
2019-06-08T10:48:59.498Z,997.6
2019-06-08T10:49:59.425Z,997.59
2019-06-08T10:50:58.569Z,997.56
2019-06-08T10:52:00.331Z,997.58
2019-06-08T10:53:01.208Z,997.59
2019-06-08T10:53:58.020Z,997.57
2019-06-08T10:55:00.728Z,997.49
2019-06-08T10:55:59.320Z,997.49
2019-06-08T10:57:00.190Z,997.49
2019-06-08T10:57:58.118Z,997.54
2019-06-08T10:59:00.193Z,997.5
2019-06-08T10:59:59.620Z,997.43
2019-06-08T11:01:01.987Z,997.4
2019-06-08T11:02:00.830Z,997.38
2019-06-08T11:03:00.316Z,997.56
2019-06-08T11:03:58.461Z,997.63
2019-06-08T11:05:02.514Z,997.63
2019-06-08T11:05:59.090Z,997.62
2019-06-08T11:07:01.121Z,997.62
2019-06-08T11:07:59.224Z,997.59
2019-06-08T11:09:01.537Z,997.57
2019-06-08T11:09:58.598Z,997.6
2019-06-08T11:10:59.929Z,997.56
2019-06-08T11:11:59.296Z,997.48
2019-06-08T11:13:02.980Z,997.46
2019-06-08T11:14:00.015Z,997.5
2019-06-08T11:14:59.405Z,997.36
2019-06-08T11:15:58.718Z,997.48
2019-06-08T11:16:58.460Z,997.43
2019-06-08T11:18:01.661Z,997.42
2019-06-08T11:18:58.980Z,997.47
2019-06-08T11:20:00.365Z,997.47
2019-06-08T11:20:59.830Z,997.42
2019-06-08T11:22:02.472Z,997.39
2019-06-08T11:22:59.889Z,997.4
2019-06-08T11:24:07.181Z,997.42
2019-06-08T11:24:58.766Z,997.37
2019-06-08T11:25:59.365Z,997.35
2019-06-08T11:26:59.687Z,997.4
2019-06-08T11:27:58.693Z,997.39
2019-06-08T11:28:58.698Z,997.44
2019-06-08T11:29:59.500Z,997.38
2019-06-08T11:30:59.654Z,997.43
2019-06-08T11:31:58.685Z,997.41
2019-06-08T11:32:59.519Z,997.34
2019-06-08T11:33:58.836Z,997.36
2019-06-08T11:34:59.785Z,997.37
2019-06-08T11:36:01.219Z,997.39
2019-06-08T11:36:59.547Z,997.31
2019-06-08T11:37:58.843Z,997.32
2019-06-08T11:38:59.136Z,997.27
2019-06-08T11:39:58.070Z,997.27
2019-06-08T11:41:00.832Z,997.29
2019-06-08T11:41:58.751Z,997.26
2019-06-08T11:42:58.571Z,997.28
2019-06-08T11:44:00.041Z,997.27
2019-06-08T11:44:58.634Z,997.29
2019-06-08T11:45:58.435Z,997.32
2019-06-08T11:46:58.090Z,997.31
2019-06-08T11:47:58.468Z,997.37
2019-06-08T11:49:01.034Z,997.34
2019-06-08T11:49:58.090Z,997.27
2019-06-08T11:50:58.479Z,997.29
2019-06-08T11:51:58.364Z,997.35
2019-06-08T11:53:00.112Z,997.28
2019-06-08T11:53:59.368Z,997.25
2019-06-08T11:55:00.613Z,997.31
2019-06-08T11:55:58.620Z,997.28
2019-06-08T11:56:58.110Z,997.25
2019-06-08T11:57:58.568Z,997.31
2019-06-08T11:58:58.122Z,997.42
2019-06-08T11:59:58.484Z,997.34
2019-06-08T12:00:58.878Z,997.33
2019-06-08T12:01:58.928Z,997.3
2019-06-08T12:02:58.209Z,997.25
2019-06-08T12:03:58.129Z,997.28
2019-06-08T12:04:58.140Z,997.21
2019-06-08T12:05:58.342Z,997.23
2019-06-08T12:06:58.472Z,997.29
2019-06-08T12:07:58.143Z,997.23
2019-06-08T12:09:00.248Z,997.22
2019-06-08T12:09:58.436Z,997.21
2019-06-08T12:11:01.930Z,997.24
2019-06-08T12:11:58.208Z,997.29
2019-06-08T12:12:58.176Z,997.23
2019-06-08T12:13:58.513Z,997.21
2019-06-08T12:14:58.334Z,997.26
2019-06-08T12:15:58.840Z,997.3
2019-06-08T12:17:01.260Z,997.2
2019-06-08T12:17:58.633Z,997.26
2019-06-08T12:18:58.695Z,997.3
2019-06-08T12:19:58.199Z,997.25
2019-06-08T12:21:01.275Z,997.33
2019-06-08T12:21:58.178Z,997.25
2019-06-08T12:22:58.191Z,997.22
2019-06-08T12:23:58.182Z,997.27
2019-06-08T12:24:58.184Z,997.23
2019-06-08T12:25:58.185Z,997.18
2019-06-08T12:27:03.377Z,997.19
2019-06-08T12:27:58.566Z,997.16
2019-06-08T12:29:01.202Z,997.17
2019-06-08T12:29:58.812Z,997.12
2019-06-08T12:31:00.918Z,997.13
2019-06-08T12:32:00.405Z,997.14